Time;durP1;ratioP1;P1;durP2;ratioP2;P2;SDS_P1;SDS_P2;PMS_P1;PMS_P2;Temp;Humidity;BMP_temperature;BMP_pressure;BME280_temperature;BME280_humidity;BME280_pressure;Samples;Min_cycle;Max_cycle;Signal;HPM_P1;HPM_P2
2023/08/27 00:00:31;;;;;;;10.45;5.18;;;20.80;84.30;;;;;;7409496;19;20010;-78
2023/08/27 00:03:00;;;;;;;13.55;6.30;;;20.80;84.60;;;;;;7405487;19;20007;-78
2023/08/27 00:05:29;;;;;;;12.63;6.65;;;20.70;84.70;;;;;;7396624;19;20471;-78
2023/08/27 00:07:59;;;;;;;11.82;7.93;;;20.60;84.70;;;;;;7414392;19;19999;-78
2023/08/27 00:10:27;;;;;;;14.80;8.55;;;20.60;85.10;;;;;;7390385;19;20007;-78
2023/08/27 00:12:56;;;;;;;13.32;9.00;;;20.50;85.10;;;;;;7387078;19;20007;-78
2023/08/27 00:15:25;;;;;;;30.52;15.32;;;20.50;85.00;;;;;;7389008;19;20007;-78
2023/08/27 00:17:56;;;;;;;16.83;10.13;;;20.50;84.90;;;;;;7388284;19;20415;-78
2023/08/27 00:20:25;;;;;;;24.55;10.40;;;20.40;85.20;;;;;;7389760;19;20010;-77
2023/08/27 00:22:54;;;;;;;22.42;10.07;;;20.40;85.50;;;;;;7409123;19;20015;-77
2023/08/27 00:25:26;;;;;;;17.30;8.98;;;20.40;85.70;;;;;;7387594;19;20003;-78
2023/08/27 00:27:55;;;;;;;20.27;10.30;;;20.40;85.90;;;;;;7386923;19;19999;-77
2023/08/27 00:30:24;;;;;;;16.10;9.45;;;20.40;85.80;;;;;;7386163;19;20011;-77
2023/08/27 00:32:52;;;;;;;17.85;8.93;;;20.30;85.60;;;;;;7385964;19;20342;-77
2023/08/27 00:35:24;;;;;;;17.52;8.68;;;20.30;85.60;;;;;;7388588;19;20028;-77
2023/08/27 00:37:52;;;;;;;;;;;20.30;85.40;;;;;;7407789;19;20027;-77
2023/08/27 00:40:21;;;;;;;16.08;9.23;;;20.40;85.40;;;;;;7385927;19;19914;-78
2023/08/27 00:42:50;;;;;;;12.52;7.82;;;20.30;85.10;;;;;;7388075;19;20027;-78
2023/08/27 00:45:18;;;;;;;11.77;7.55;;;20.30;85.40;;;;;;7388281;19;20007;-77
2023/08/27 00:47:47;;;;;;;13.95;7.93;;;20.20;85.50;;;;;;7389114;19;20006;-78
2023/08/27 00:50:19;;;;;;;13.43;6.45;;;20.20;85.60;;;;;;7388645;19;20010;-78
2023/08/27 00:52:52;;;;;;;9.20;5.47;;;20.20;85.70;;;;;;7409270;19;20018;-78
2023/08/27 00:55:21;;;;;;;9.18;5.43;;;20.10;85.80;;;;;;7387573;19;20565;-78
2023/08/27 00:57:51;;;;;;;7.32;4.20;;;20.10;85.80;;;;;;7386320;19;20024;-78
2023/08/27 01:00:21;;;;;;;6.72;3.90;;;20.10;85.80;;;;;;7387245;19;20066;-78
2023/08/27 01:02:51;;;;;;;5.03;3.17;;;20.00;85.90;;;;;;7387025;19;20063;-78
2023/08/27 01:05:20;;;;;;;6.25;2.92;;;20.00;85.70;;;;;;7388166;19;20020;-78
2023/08/27 01:08:03;;;;;;;5.55;2.20;;;20.10;85.70;;;;;;7409092;19;20039;-78
2023/08/27 01:10:40;;;;;;;5.68;2.08;;;20.00;85.40;;;;;;7387056;19;20007;-78
2023/08/27 01:13:13;;;;;;;2.90;1.58;;;19.90;85.50;;;;;;7385725;19;20054;-78
2023/08/27 01:15:43;;;;;;;2.08;1.73;;;19.90;85.50;;;;;;7385958;19;20007;-77
2023/08/27 01:18:13;;;;;;;4.78;1.92;;;19.90;85.40;;;;;;7384938;19;20050;-78
2023/08/27 01:20:42;;;;;;;2.22;1.48;;;20.00;85.40;;;;;;7384329;19;20006;-77
2023/08/27 01:23:14;;;;;;;8.95;2.20;;;19.90;85.40;;;;;;7385468;19;20006;-77
2023/08/27 01:25:43;;;;;;;;;;;19.90;85.20;;;;;;7407957;19;20071;-78
2023/08/27 01:28:34;;;;;;;1.42;1.20;;;19.90;85.10;;;;;;7382681;19;19920;-78
2023/08/27 01:31:09;;;;;;;5.68;1.80;;;19.90;85.00;;;;;;7385116;19;20086;-77
2023/08/27 01:33:40;;;;;;;4.15;2.50;;;19.90;85.10;;;;;;7385032;19;20003;-77
2023/08/27 01:36:10;;;;;;;6.75;3.90;;;19.90;85.20;;;;;;7383025;19;20016;-77
2023/08/27 01:38:41;;;;;;;5.18;2.17;;;19.90;85.10;;;;;;7383111;19;20010;-78
2023/08/27 01:41:10;;;;;;;4.10;1.80;;;19.90;85.00;;;;;;7398192;19;20027;-77
2023/08/27 01:43:38;;;;;;;1.85;1.48;;;19.90;84.70;;;;;;7402471;19;20018;-77
2023/08/27 01:46:07;;;;;;;5.20;1.70;;;19.90;84.50;;;;;;7384667;19;20502;-78
2023/08/27 01:48:36;;;;;;;2.67;1.55;;;19.90;84.30;;;;;;7385300;19;20006;-78
2023/08/27 01:51:05;;;;;;;2.05;1.35;;;19.80;84.50;;;;;;7384547;19;20370;-77
2023/08/27 01:53:33;;;;;;;3.60;1.90;;;19.80;84.70;;;;;;7399707;19;20010;-77
2023/08/27 01:56:05;;;;;;;2.42;1.60;;;19.80;84.80;;;;;;7425140;19;20014;-77
2023/08/27 01:58:34;;;;;;;3.00;1.88;;;19.70;84.90;;;;;;7397492;19;20003;-77
2023/08/27 02:01:03;;;;;;;3.47;1.40;;;19.70;85.10;;;;;;7391218;19;20041;-77
2023/08/27 02:03:32;;;;;;;3.80;1.52;;;19.70;85.10;;;;;;7384736;19;20027;-77
2023/08/27 02:06:00;;;;;;;3.00;1.40;;;19.70;85.20;;;;;;7383960;19;20390;-77
2023/08/27 02:08:29;;;;;;;3.78;1.80;;;19.70;85.20;;;;;;7381760;19;20020;-77
2023/08/27 02:10:58;;;;;;;4.80;1.95;;;19.60;85.20;;;;;;7404375;19;20034;-77
2023/08/27 02:13:29;;;;;;;4.45;2.10;;;19.70;84.80;;;;;;7381708;19;20031;-77
2023/08/27 02:15:58;;;;;;;;;;;19.60;84.80;;;;;;7383335;19;19999;-77
2023/08/27 02:18:26;;;;;;;5.00;2.00;;;19.60;84.70;;;;;;7382406;19;19911;-78
2023/08/27 02:20:57;;;;;;;4.47;2.38;;;19.60;84.40;;;;;;7382348;19;20034;-77
2023/08/27 02:23:25;;;;;;;9.47;3.00;;;19.60;84.30;;;;;;7382988;19;20371;-77
2023/08/27 02:25:54;;;;;;;3.25;2.38;;;19.60;84.40;;;;;;7405082;19;20378;-77
2023/08/27 02:28:23;;;;;;;5.00;2.78;;;19.60;84.50;;;;;;7385893;19;20003;-77
2023/08/27 02:30:59;;;;;;;7.07;3.70;;;19.60;84.50;;;;;;7382301;19;20010;-77
2023/08/27 02:33:27;;;;;;;10.27;4.50;;;19.50;84.50;;;;;;7384693;19;20028;-77
2023/08/27 02:35:56;;;;;;;7.95;4.35;;;19.60;84.50;;;;;;7384787;19;20006;-78
2023/08/27 02:38:25;;;;;;;9.05;5.05;;;19.50;84.60;;;;;;7382887;19;20028;-77
2023/08/27 02:40:53;;;;;;;10.82;4.00;;;19.50;84.60;;;;;;7402575;19;20024;-78
2023/08/27 02:43:22;;;;;;;7.53;3.70;;;19.50;84.70;;;;;;7381978;19;20248;-78
2023/08/27 02:45:51;;;;;;;6.63;3.17;;;19.40;85.50;;;;;;7382306;19;20039;-78
2023/08/27 02:48:24;;;;;;;5.65;2.97;;;19.40;84.80;;;;;;7382714;19;20252;-78
2023/08/27 02:50:53;;;;;;;8.82;2.50;;;19.30;85.00;;;;;;7382702;19;20054;-77
2023/08/27 02:53:22;;;;;;;4.75;2.30;;;19.30;85.60;;;;;;7381777;19;20014;-78
2023/08/27 02:55:51;;;;;;;5.43;2.88;;;19.30;85.90;;;;;;7403512;19;20003;-78
2023/08/27 02:58:22;;;;;;;4.32;2.53;;;19.30;85.50;;;;;;7380356;19;20014;-78
2023/08/27 03:00:50;;;;;;;9.15;3.72;;;19.30;85.00;;;;;;7383114;19;20006;-77
2023/08/27 03:03:22;;;;;;;7.13;3.15;;;19.20;84.80;;;;;;7383618;19;20006;-78
2023/08/27 03:05:50;;;;;;;;;;;19.30;84.70;;;;;;7383867;19;20227;-78
2023/08/27 03:08:19;;;;;;;6.65;3.60;;;19.30;84.80;;;;;;7383754;19;20157;-78
2023/08/27 03:10:48;;;;;;;8.60;3.47;;;19.30;84.70;;;;;;7404148;19;20002;-78
2023/08/27 03:13:17;;;;;;;9.60;3.20;;;19.20;84.60;;;;;;7384596;19;20295;-77
2023/08/27 03:15:45;;;;;;;6.38;3.30;;;19.20;84.60;;;;;;7383728;19;20006;-78
2023/08/27 03:18:14;;;;;;;9.10;3.40;;;19.20;84.60;;;;;;7382864;19;20006;-78
2023/08/27 03:20:46;;;;;;;5.75;3.95;;;19.20;84.70;;;;;;7381377;19;20010;-77
2023/08/27 03:23:14;;;;;;;12.68;3.85;;;19.20;85.00;;;;;;7382395;19;20007;-78
2023/08/27 03:25:43;;;;;;;10.68;3.88;;;19.10;85.50;;;;;;7403981;19;20058;-77
2023/08/27 03:28:12;;;;;;;4.82;3.30;;;19.10;85.80;;;;;;7378364;19;20003;-77
2023/08/27 03:30:42;;;;;;;6.95;2.35;;;19.10;85.90;;;;;;7377374;19;20003;-77
2023/08/27 03:33:11;;;;;;;6.17;3.60;;;19.00;85.80;;;;;;7378175;19;20003;-77
2023/08/27 03:35:39;;;;;;;9.40;4.57;;;19.10;85.60;;;;;;7378994;19;20020;-78
2023/08/27 03:38:11;;;;;;;5.75;3.75;;;19.00;85.30;;;;;;7401261;19;20018;-77
2023/08/27 03:40:39;;;;;;;;;;;19.00;85.30;;;;;;7378838;19;20022;-77
2023/08/27 03:43:08;;;;;;;4.70;2.20;;;19.00;85.30;;;;;;7385923;19;19931;-78
2023/08/27 03:45:41;;;;;;;5.97;2.20;;;19.00;85.20;;;;;;7396333;19;19998;-77
2023/08/27 03:48:09;;;;;;;5.00;2.30;;;19.00;85.20;;;;;;7391643;19;20093;-77
2023/08/27 03:50:39;;;;;;;2.63;1.58;;;18.90;85.20;;;;;;7390374;19;20003;-77
2023/08/27 03:53:10;;;;;;;3.53;1.25;;;18.90;85.60;;;;;;7426636;19;20007;-78
2023/08/27 03:55:43;;;;;;;6.00;1.48;;;18.90;85.50;;;;;;7392653;19;20040;-77
2023/08/27 03:58:13;;;;;;;1.75;1.52;;;18.80;85.40;;;;;;7383474;19;20338;-76
2023/08/27 04:00:41;;;;;;;4.32;1.60;;;18.80;85.40;;;;;;7383386;19;20016;-77
2023/08/27 04:03:10;;;;;;;3.10;1.45;;;18.80;85.50;;;;;;7384910;19;20014;-77
2023/08/27 04:05:40;;;;;;;2.47;1.45;;;18.80;85.10;;;;;;7386960;19;20024;-77
2023/08/27 04:08:11;;;;;;;5.20;2.15;;;18.80;84.80;;;;;;7408538;19;20023;-77
2023/08/27 04:10:40;;;;;;;6.60;2.20;;;18.80;84.60;;;;;;7385520;19;20371;-78
2023/08/27 04:13:09;;;;;;;7.38;2.45;;;18.80;84.70;;;;;;7385746;19;20014;-77
2023/08/27 04:15:37;;;;;;;3.30;2.10;;;18.70;84.70;;;;;;7386864;19;20060;-77
2023/08/27 04:18:06;;;;;;;2.72;1.80;;;18.70;85.00;;;;;;7386274;19;20011;-77
2023/08/27 04:20:35;;;;;;;3.10;1.92;;;18.70;85.20;;;;;;7389638;19;20283;-77
2023/08/27 04:23:04;;;;;;;3.38;2.28;;;18.70;85.00;;;;;;7407304;19;20028;-77
2023/08/27 04:25:36;;;;;;;2.53;1.80;;;18.60;85.00;;;;;;7386842;19;20007;-77
2023/08/27 04:28:05;;;;;;;3.50;1.70;;;18.60;85.10;;;;;;7386744;19;20022;-77
2023/08/27 04:30:34;;;;;;;10.95;2.28;;;18.60;85.10;;;;;;7386153;19;20011;-78
2023/08/27 04:33:03;;;;;;;7.28;2.10;;;18.60;85.00;;;;;;7384463;19;20258;-78
2023/08/27 04:35:31;;;;;;;10.20;2.03;;;18.60;84.70;;;;;;7382721;19;20050;-77
2023/08/27 04:38:00;;;;;;;4.63;2.28;;;18.60;84.50;;;;;;7403886;19;20426;-77
2023/08/27 04:40:29;;;;;;;10.68;2.72;;;18.60;84.40;;;;;;7381320;19;20010;-77
2023/08/27 04:43:01;;;;;;;5.22;2.20;;;18.60;84.50;;;;;;7383005;19;20396;-77
2023/08/27 04:45:30;;;;;;;4.63;1.70;;;18.60;84.50;;;;;;7383716;19;20007;-77
2023/08/27 04:47:59;;;;;;;2.40;1.50;;;18.50;84.50;;;;;;7383827;19;20118;-77
2023/08/27 04:50:28;;;;;;;3.72;1.20;;;18.50;84.50;;;;;;7384962;19;20013;-77
2023/08/27 04:52:57;;;;;;;3.65;1.40;;;18.50;84.50;;;;;;7404220;19;20011;-76
2023/08/27 04:55:25;;;;;;;4.97;1.45;;;18.50;84.60;;;;;;7382238;19;20361;-77
2023/08/27 04:57:54;;;;;;;2.03;1.50;;;18.50;84.50;;;;;;7381522;19;20011;-77
2023/08/27 05:00:26;;;;;;;4.60;1.77;;;18.50;84.40;;;;;;7383739;19;19999;-77
2023/08/27 05:02:54;;;;;;;;;;;18.50;84.20;;;;;;7382410;19;20453;-77
2023/08/27 05:05:23;;;;;;;5.53;1.40;;;18.50;84.20;;;;;;7380362;19;19915;-77
2023/08/27 05:07:51;;;;;;;1.92;1.60;;;18.50;84.10;;;;;;7402961;19;20106;-77
2023/08/27 05:10:20;;;;;;;7.30;1.85;;;18.50;83.90;;;;;;7381263;19;19999;-77
2023/08/27 05:12:49;;;;;;;5.43;1.60;;;18.50;83.80;;;;;;7380915;19;20003;-77
2023/08/27 05:15:20;;;;;;;5.75;1.83;;;18.40;83.90;;;;;;7389369;19;20007;-77
2023/08/27 05:17:51;;;;;;;2.47;1.88;;;18.40;83.90;;;;;;7388189;19;20006;-77
2023/08/27 05:20:20;;;;;;;4.97;2.60;;;18.40;84.00;;;;;;7385295;19;20014;-77
2023/08/27 05:22:49;;;;;;;7.93;3.08;;;18.40;83.90;;;;;;7407322;19;20365;-77
2023/08/27 05:25:18;;;;;;;4.53;2.47;;;18.40;83.90;;;;;;7385820;19;20002;-78
2023/08/27 05:27:47;;;;;;;6.22;3.03;;;18.40;83.90;;;;;;7386366;19;20025;-77
2023/08/27 05:30:16;;;;;;;5.13;2.97;;;18.40;84.00;;;;;;7385517;19;19999;-77
2023/08/27 05:32:45;;;;;;;5.72;2.83;;;18.40;84.20;;;;;;7383044;19;20070;-77
2023/08/27 05:35:17;;;;;;;6.13;2.95;;;18.40;84.30;;;;;;7382517;19;20035;-77
2023/08/27 05:37:46;;;;;;;7.20;2.90;;;18.30;84.60;;;;;;7403596;19;20251;-77
2023/08/27 05:40:15;;;;;;;7.28;2.58;;;18.30;84.60;;;;;;7379918;19;20272;-78
2023/08/27 05:42:44;;;;;;;8.25;2.30;;;18.30;84.60;;;;;;7386857;19;20398;-77
2023/08/27 05:45:16;;;;;;;4.65;2.30;;;18.40;84.70;;;;;;7389526;19;20011;-76
2023/08/27 05:47:46;;;;;;;4.25;2.05;;;18.40;85.00;;;;;;7389812;19;19999;-77
2023/08/27 05:50:17;;;;;;;4.53;2.03;;;18.30;86.00;;;;;;7391653;19;20330;-77
2023/08/27 05:52:46;;;;;;;;;;;18.30;85.70;;;;;;7408252;19;20007;-77
2023/08/27 05:55:15;;;;;;;3.10;1.80;;;18.30;86.10;;;;;;7382281;19;19967;-77
2023/08/27 05:57:44;;;;;;;4.57;1.92;;;18.30;86.20;;;;;;7382516;19;20020;-77
2023/08/27 06:00:14;;;;;;;8.27;2.13;;;18.30;86.50;;;;;;7382408;19;20002;-77
2023/08/27 06:02:43;;;;;;;6.68;2.00;;;18.30;86.50;;;;;;7383685;19;20012;-77
2023/08/27 06:05:12;;;;;;;3.70;2.47;;;18.40;86.40;;;;;;7384352;19;20019;-77
2023/08/27 06:07:45;;;;;;;5.25;1.98;;;18.40;86.30;;;;;;7405077;19;20003;-77
2023/08/27 06:10:14;;;;;;;2.08;1.75;;;18.40;86.40;;;;;;7383043;19;20006;-77
2023/08/27 06:12:44;;;;;;;7.35;3.00;;;18.50;86.60;;;;;;7385355;19;20074;-76
2023/08/27 06:15:13;;;;;;;6.97;1.67;;;18.50;86.70;;;;;;7382281;19;20009;-77
2023/08/27 06:17:41;;;;;;;4.95;1.83;;;18.50;86.90;;;;;;7381722;19;20626;-77
2023/08/27 06:20:11;;;;;;;12.23;2.60;;;18.50;87.10;;;;;;7391633;19;20267;-77
2023/08/27 06:22:43;;;;;;;7.35;1.77;;;18.50;87.50;;;;;;7403066;19;20038;-77
2023/08/27 06:25:12;;;;;;;4.22;1.83;;;18.60;87.70;;;;;;7381181;19;20023;-77
2023/08/27 06:27:41;;;;;;;4.00;2.08;;;18.70;87.70;;;;;;7380367;19;20388;-77
2023/08/27 06:30:11;;;;;;;9.05;1.58;;;18.60;87.90;;;;;;7379953;19;20003;-77
2023/08/27 06:32:40;;;;;;;6.82;1.90;;;18.70;88.10;;;;;;7378839;19;20026;-77
2023/08/27 06:35:09;;;;;;;6.38;2.00;;;18.70;88.20;;;;;;7401504;19;20011;-77
2023/08/27 06:37:38;;;;;;;7.75;1.88;;;18.70;88.30;;;;;;7378645;19;20002;-77
2023/08/27 06:40:10;;;;;;;7.15;1.70;;;18.80;88.60;;;;;;7377004;19;20010;-77
2023/08/27 06:42:39;;;;;;;7.97;1.80;;;18.80;88.60;;;;;;7379262;19;20064;-77
2023/08/27 06:45:09;;;;;;;5.90;2.05;;;18.90;88.80;;;;;;7378947;19;20060;-76
2023/08/27 06:47:38;;;;;;;8.65;2.00;;;18.90;88.60;;;;;;7379184;19;20013;-77
2023/08/27 06:50:08;;;;;;;4.40;1.88;;;18.90;88.80;;;;;;7400750;19;20020;-77
2023/08/27 06:52:37;;;;;;;4.63;1.60;;;18.90;89.00;;;;;;7378876;19;20349;-77
2023/08/27 06:55:10;;;;;;;5.65;2.00;;;19.00;89.20;;;;;;7379340;19;20365;-76
2023/08/27 06:57:38;;;;;;;9.40;2.03;;;19.00;89.20;;;;;;7380237;19;20071;-77
2023/08/27 07:00:09;;;;;;;6.75;1.70;;;19.00;89.30;;;;;;7379570;19;20232;-77
2023/08/27 07:02:38;;;;;;;6.37;1.80;;;19.00;89.30;;;;;;7382115;19;20018;-77
2023/08/27 07:05:08;;;;;;;9.60;1.88;;;19.00;89.30;;;;;;7402652;19;20268;-77
2023/08/27 07:07:37;;;;;;;10.27;1.80;;;19.10;89.40;;;;;;7379975;19;20002;-77
2023/08/27 07:10:10;;;;;;;4.45;1.65;;;18.90;89.70;;;;;;7378413;19;20019;-77
2023/08/27 07:12:39;;;;;;;8.00;1.75;;;18.90;90.00;;;;;;7379495;19;20007;-77
2023/08/27 07:15:09;;;;;;;6.00;1.85;;;18.90;89.90;;;;;;7378792;19;20305;-77
2023/08/27 07:17:38;;;;;;;6.80;2.00;;;18.90;90.10;;;;;;7379300;19;20006;-77
2023/08/27 07:20:09;;;;;;;6.28;1.77;;;18.70;90.20;;;;;;7403633;19;20006;-77
2023/08/27 07:22:41;;;;;;;7.30;1.98;;;18.50;90.50;;;;;;7382979;19;20386;-77
2023/08/27 07:25:12;;;;;;;5.45;1.88;;;18.50;90.80;;;;;;7379185;19;20007;-77
2023/08/27 07:27:40;;;;;;;;;;;18.60;90.70;;;;;;7384554;19;20038;-77
2023/08/27 07:30:10;;;;;;;7.60;1.60;;;18.70;90.80;;;;;;7386773;19;19942;-77
2023/08/27 07:32:39;;;;;;;8.85;2.22;;;18.70;90.80;;;;;;7385415;19;20002;-77
2023/08/27 07:35:08;;;;;;;6.18;1.70;;;18.80;90.60;;;;;;7408022;19;20058;-77
2023/08/27 07:37:37;;;;;;;9.23;2.10;;;18.50;90.80;;;;;;7384936;19;20006;-77
2023/08/27 07:40:10;;;;;;;10.30;2.20;;;18.40;90.70;;;;;;7384298;19;20007;-77
2023/08/27 07:42:41;;;;;;;16.48;2.33;;;18.40;91.00;;;;;;7389883;19;20158;-77
2023/08/27 07:45:11;;;;;;;5.72;1.55;;;18.50;91.00;;;;;;7390025;19;20229;-78
2023/08/27 07:47:40;;;;;;;4.15;1.45;;;18.40;91.10;;;;;;7387118;19;20023;-77
2023/08/27 07:50:10;;;;;;;6.20;2.03;;;18.40;91.40;;;;;;7407195;19;20391;-77
2023/08/27 07:52:39;;;;;;;6.60;1.83;;;18.60;91.20;;;;;;7384149;19;20003;-77
2023/08/27 07:55:09;;;;;;;5.47;1.95;;;18.70;90.80;;;;;;7383812;19;20007;-77
2023/08/27 07:57:37;;;;;;;10.35;1.85;;;18.80;90.80;;;;;;7384502;19;20096;-77
2023/08/27 08:00:14;;;;;;;9.13;1.65;;;18.80;91.10;;;;;;7386420;19;20051;-78
2023/08/27 08:02:43;;;;;;;8.82;2.00;;;18.90;90.70;;;;;;7383508;19;20086;-77
2023/08/27 08:05:12;;;;;;;10.90;1.75;;;18.90;90.60;;;;;;7384735;19;20024;-76
2023/08/27 08:07:42;;;;;;;11.93;2.25;;;19.00;90.50;;;;;;7402728;19;20039;-77
2023/08/27 08:10:11;;;;;;;8.60;2.03;;;19.30;90.30;;;;;;7383066;19;20095;-77
2023/08/27 08:12:39;;;;;;;8.70;1.60;;;19.50;90.30;;;;;;7384480;19;20006;-77
2023/08/27 08:15:12;;;;;;;10.88;2.03;;;19.50;90.10;;;;;;7384307;19;20006;-77
2023/08/27 08:17:41;;;;;;;4.80;1.63;;;19.60;90.00;;;;;;7384760;19;20006;-77
2023/08/27 08:20:11;;;;;;;8.32;1.65;;;19.60;89.60;;;;;;7403892;19;20011;-77
2023/08/27 08:22:39;;;;;;;6.15;1.60;;;19.60;89.60;;;;;;7384798;19;20003;-77
2023/08/27 08:25:09;;;;;;;6.20;1.52;;;19.70;89.40;;;;;;7384860;19;20010;-77
2023/08/27 08:27:37;;;;;;;6.97;1.40;;;19.70;88.30;;;;;;7384180;19;20358;-77
2023/08/27 08:30:08;;;;;;;4.05;1.38;;;19.50;88.60;;;;;;7384682;19;20006;-77
2023/08/27 08:32:39;;;;;;;8.68;1.80;;;19.50;89.30;;;;;;7385019;19;20002;-78
2023/08/27 08:35:08;;;;;;;;;;;19.50;88.70;;;;;;7406620;19;20003;-77
2023/08/27 08:37:37;;;;;;;6.03;1.55;;;19.40;89.00;;;;;;7382284;19;19911;-77
2023/08/27 08:40:06;;;;;;;8.80;1.60;;;19.40;89.10;;;;;;7381527;19;20082;-77
2023/08/27 08:42:41;;;;;;;3.70;1.20;;;19.20;88.60;;;;;;7383765;19;20002;-77
2023/08/27 08:45:15;;;;;;;8.00;1.58;;;19.10;89.40;;;;;;7383500;19;20003;-77
2023/08/27 08:47:47;;;;;;;8.60;1.25;;;19.20;89.00;;;;;;7384046;19;20014;-77
2023/08/27 08:50:17;;;;;;;7.07;1.27;;;19.40;88.70;;;;;;7384061;19;20014;-77
2023/08/27 08:52:48;;;;;;;6.68;1.42;;;19.60;88.20;;;;;;7405795;19;20027;-77
2023/08/27 08:55:21;;;;;;;4.85;1.35;;;19.80;87.90;;;;;;7383542;19;20015;-77
2023/08/27 08:57:57;;;;;;;6.97;1.27;;;19.60;86.80;;;;;;7386308;19;20006;-78
2023/08/27 09:00:27;;;;;;;6.00;1.08;;;19.60;85.70;;;;;;7395544;19;19998;-78
2023/08/27 09:03:03;;;;;;;7.32;1.25;;;19.70;85.90;;;;;;7387353;19;20007;-77
2023/08/27 09:05:34;;;;;;;5.80;1.17;;;19.80;85.40;;;;;;7384665;19;20039;-78
2023/08/27 09:08:02;;;;;;;3.27;1.20;;;20.00;85.50;;;;;;7407125;19;20011;-77
2023/08/27 09:10:31;;;;;;;6.57;1.40;;;19.90;84.90;;;;;;7380586;19;20024;-77
2023/08/27 09:13:04;;;;;;;6.00;1.38;;;19.90;85.40;;;;;;7384467;19;20007;-77
2023/08/27 09:15:33;;;;;;;4.32;1.20;;;19.90;85.20;;;;;;7384688;19;20031;-77
2023/08/27 09:18:05;;;;;;;4.63;0.98;;;19.80;84.80;;;;;;7385269;19;20015;-77
2023/08/27 09:20:34;;;;;;;3.55;1.10;;;19.90;83.90;;;;;;7383642;19;20086;-78
2023/08/27 09:23:03;;;;;;;6.15;0.98;;;19.80;83.90;;;;;;7406021;19;20349;-78
2023/08/27 09:25:32;;;;;;;3.97;0.88;;;20.00;84.20;;;;;;7381229;19;20003;-78
2023/08/27 09:28:01;;;;;;;6.53;1.38;;;20.10;83.30;;;;;;7380646;19;20011;-77
2023/08/27 09:30:30;;;;;;;3.30;1.08;;;20.20;83.20;;;;;;7382335;19;20024;-78
2023/08/27 09:32:58;;;;;;;5.13;1.15;;;20.30;82.90;;;;;;7383062;19;20006;-77
2023/08/27 09:35:39;;;;;;;1.98;0.85;;;20.40;82.50;;;;;;7381803;19;20406;-77
2023/08/27 09:38:13;;;;;;;5.18;0.95;;;20.30;82.20;;;;;;7409182;19;20009;-78
2023/08/27 09:40:42;;;;;;;4.38;1.00;;;20.20;82.80;;;;;;7387594;19;20011;-78
2023/08/27 09:43:13;;;;;;;7.63;1.23;;;20.40;83.00;;;;;;7385268;19;20006;-77
2023/08/27 09:45:43;;;;;;;3.10;0.98;;;20.20;82.60;;;;;;7385955;19;20386;-77
2023/08/27 09:48:12;;;;;;;3.20;1.20;;;20.30;81.90;;;;;;7385515;19;20006;-78
2023/08/27 09:50:44;;;;;;;5.97;1.10;;;20.30;82.20;;;;;;7380512;19;20014;-77
2023/08/27 09:53:13;;;;;;;;;;;20.40;81.60;;;;;;7384879;19;20019;-77
2023/08/27 09:55:45;;;;;;;2.97;1.10;;;20.50;82.50;;;;;;7403168;19;19911;-77
2023/08/27 09:58:13;;;;;;;;;;;20.60;81.40;;;;;;7384647;19;20078;-77
2023/08/27 10:00:45;;;;;;;2.80;1.15;;;20.40;81.00;;;;;;7380963;19;19914;-77
2023/08/27 10:03:14;;;;;;;8.00;1.20;;;20.50;81.20;;;;;;7380291;19;20010;-77
2023/08/27 10:05:45;;;;;;;4.53;1.30;;;20.60;80.70;;;;;;7380204;19;20039;-77
2023/08/27 10:08:13;;;;;;;;;;;20.40;80.50;;;;;;7378711;19;20019;-77
2023/08/27 10:10:43;;;;;;;5.38;1.30;;;20.10;81.10;;;;;;7401651;19;19915;-77
2023/08/27 10:13:16;;;;;;;6.22;1.00;;;20.30;81.60;;;;;;7379468;19;20003;-77
2023/08/27 10:15:46;;;;;;;3.03;1.38;;;20.30;82.00;;;;;;7379227;19;20252;-77
2023/08/27 10:18:18;;;;;;;6.65;1.33;;;20.20;82.20;;;;;;7379885;19;20022;-77
2023/08/27 10:20:49;;;;;;;1.40;1.00;;;20.40;82.30;;;;;;7378853;19;20026;-77
2023/08/27 10:23:18;;;;;;;6.90;1.20;;;20.50;82.00;;;;;;7379325;19;20011;-77
2023/08/27 10:25:50;;;;;;;8.55;1.13;;;20.50;80.00;;;;;;7401282;19;20169;-77
2023/08/27 10:28:20;;;;;;;6.50;1.20;;;20.50;80.10;;;;;;7378738;19;20020;-77
2023/08/27 10:30:48;;;;;;;3.80;0.98;;;20.40;79.10;;;;;;7378706;19;20401;-76
2023/08/27 10:33:19;;;;;;;6.20;1.30;;;20.40;80.00;;;;;;7379638;19;19998;-76
2023/08/27 10:35:55;;;;;;;5.63;1.10;;;20.50;79.40;;;;;;7379211;19;20354;-77
2023/08/27 10:38:26;;;;;;;3.63;1.20;;;20.60;79.60;;;;;;7378212;19;20074;-77
2023/08/27 10:40:55;;;;;;;5.43;1.30;;;20.70;79.10;;;;;;7398896;19;20070;-77
2023/08/27 10:43:24;;;;;;;6.85;1.35;;;20.80;78.60;;;;;;7378382;19;20074;-77
2023/08/27 10:45:53;;;;;;;6.82;1.15;;;20.90;78.60;;;;;;7378766;19;20085;-77
2023/08/27 10:48:26;;;;;;;4.47;0.82;;;21.00;77.40;;;;;;7378958;19;20002;-77
2023/08/27 10:51:10;;;;;;;5.15;0.90;;;20.90;77.40;;;;;;7379521;19;20099;-76
2023/08/27 10:53:43;;;;;;;4.57;1.13;;;20.80;76.60;;;;;;7378358;19;20023;-77
2023/08/27 10:56:31;;;;;;;4.15;1.10;;;20.80;77.90;;;;;;7378403;19;20020;-77
2023/08/27 10:59:00;;;;;;;5.25;1.30;;;20.90;77.40;;;;;;7401093;19;20013;-77
2023/08/27 11:01:31;;;;;;;4.20;1.13;;;21.00;76.80;;;;;;7382200;19;20374;-77
2023/08/27 11:04:01;;;;;;;2.70;0.88;;;21.00;77.80;;;;;;7385200;19;20011;-77
2023/08/27 11:06:54;;;;;;;2.53;0.80;;;21.10;76.50;;;;;;7385828;19;20586;-77
2023/08/27 11:09:25;;;;;;;7.10;0.85;;;21.20;73.80;;;;;;7385839;19;20013;-76
2023/08/27 11:11:55;;;;;;;3.10;1.08;;;21.20;71.90;;;;;;7385696;19;19999;-77
2023/08/27 11:14:25;;;;;;;4.40;1.08;;;21.30;72.90;;;;;;7385549;19;20006;-76
2023/08/27 11:16:59;;;;;;;1.80;0.73;;;21.30;72.40;;;;;;7406782;19;20284;-77
2023/08/27 11:19:34;;;;;;;1.15;0.82;;;21.30;71.70;;;;;;7384807;19;20013;-76
2023/08/27 11:22:17;;;;;;;1.85;1.00;;;21.50;72.40;;;;;;7384701;19;20005;-76
2023/08/27 11:24:48;;;;;;;1.67;0.80;;;21.40;71.90;;;;;;7385282;19;19999;-76
2023/08/27 11:27:18;;;;;;;1.80;0.77;;;21.50;70.40;;;;;;7384931;19;20053;-76
2023/08/27 11:29:50;;;;;;;1.77;1.20;;;21.50;70.40;;;;;;7385649;19;20578;-76
2023/08/27 11:32:20;;;;;;;3.03;0.93;;;21.60;70.30;;;;;;7383365;19;20350;-75
2023/08/27 11:34:51;;;;;;;3.75;1.10;;;21.60;70.80;;;;;;7407090;19;20405;-76
2023/08/27 11:37:31;;;;;;;;;;;21.70;71.40;;;;;;7390542;19;20031;-78
2023/08/27 11:40:00;;;;;;;1.63;0.77;;;21.70;69.30;;;;;;7390129;19;19915;-78
2023/08/27 11:42:29;;;;;;;4.47;1.10;;;21.70;69.50;;;;;;7390001;19;20021;-78
2023/08/27 11:44:58;;;;;;;1.67;0.77;;;21.60;69.60;;;;;;7391218;19;20244;-77
2023/08/27 11:47:28;;;;;;;2.42;0.80;;;21.70;70.60;;;;;;7385292;19;20477;-77
2023/08/27 11:49:59;;;;;;;2.70;0.70;;;21.80;69.40;;;;;;7407435;19;20059;-77
2023/08/27 11:52:31;;;;;;;7.13;0.80;;;21.70;69.20;;;;;;7384076;19;20023;-77
2023/08/27 11:54:59;;;;;;;;;;;21.80;69.00;;;;;;7384843;19;20078;-77
2023/08/27 11:57:29;;;;;;;4.95;1.02;;;21.90;68.10;;;;;;7384501;19;19931;-77
2023/08/27 11:59:57;;;;;;;5.00;0.80;;;22.00;68.70;;;;;;7383794;19;20361;-77
2023/08/27 12:02:27;;;;;;;2.17;0.80;;;22.10;69.30;;;;;;7383684;19;20023;-78
2023/08/27 12:04:56;;;;;;;2.85;1.30;;;22.10;69.70;;;;;;7405955;19;20066;-77
2023/08/27 12:07:33;;;;;;;1.75;0.50;;;22.10;70.20;;;;;;7383911;19;20074;-77
2023/08/27 12:10:10;;;;;;;3.50;1.25;;;22.10;67.80;;;;;;7383458;19;20011;-78
2023/08/27 12:12:41;;;;;;;6.30;0.93;;;22.30;68.50;;;;;;7383953;19;20007;-76
2023/08/27 12:15:12;;;;;;;1.63;0.80;;;22.30;66.30;;;;;;7385392;19;20007;-78
2023/08/27 12:17:41;;;;;;;1.92;0.85;;;22.40;67.40;;;;;;7385247;19;20013;-78
2023/08/27 12:20:10;;;;;;;6.13;0.90;;;22.50;66.20;;;;;;7402513;19;20075;-78
2023/08/27 12:22:48;;;;;;;2.17;0.73;;;22.60;66.10;;;;;;7405179;19;20690;-77
2023/08/27 12:25:18;;;;;;;2.17;0.85;;;22.70;66.10;;;;;;7384281;19;20221;-78
2023/08/27 12:27:47;;;;;;;8.45;1.10;;;22.80;67.10;;;;;;7384774;19;20010;-78
2023/08/27 12:30:16;;;;;;;1.17;0.52;;;22.90;66.30;;;;;;7387802;19;20011;-77
2023/08/27 12:32:45;;;;;;;5.90;0.80;;;23.10;66.20;;;;;;7390338;19;20006;-77
2023/08/27 12:35:16;;;;;;;4.05;0.80;;;23.20;65.10;;;;;;7385952;19;20067;-78
2023/08/27 12:37:44;;;;;;;3.13;1.00;;;23.30;64.80;;;;;;7403754;19;20027;-77
2023/08/27 12:40:16;;;;;;;2.40;0.70;;;23.30;64.90;;;;;;7384074;19;20007;-77
2023/08/27 12:42:45;;;;;;;3.53;0.95;;;23.40;63.70;;;;;;7384323;19;20390;-77
2023/08/27 12:45:14;;;;;;;3.38;0.90;;;23.50;64.30;;;;;;7383772;19;20058;-77
2023/08/27 12:47:43;;;;;;;5.50;1.08;;;23.60;64.70;;;;;;7386808;19;20003;-77
2023/08/27 12:50:13;;;;;;;2.00;1.00;;;23.50;63.80;;;;;;7384235;19;20013;-77
2023/08/27 12:52:41;;;;;;;2.95;1.02;;;23.50;63.80;;;;;;7405281;19;20006;-77
2023/08/27 12:55:11;;;;;;;2.25;0.90;;;23.40;64.30;;;;;;7382809;19;20003;-78
2023/08/27 12:57:42;;;;;;;2.03;0.95;;;23.30;64.10;;;;;;7382709;19;20006;-77
2023/08/27 13:00:12;;;;;;;6.70;1.50;;;23.10;65.00;;;;;;7383882;19;20062;-77
2023/08/27 13:02:41;;;;;;;2.25;1.40;;;23.00;65.20;;;;;;7382349;19;20019;-77